sim
Sign-in with your pilot id or email,
or register
Callsign
Passwort

Schedule Details

Flight Number: DLH2735 (1)
Departure: Dusseldorf International Airport (EDDL) at 06:00
Arrival: Munich Airport (EDDM) at 07:10
Route: Lufthansa Passenger Schedule. Enter filed route here before submitting Pirep.

Weather Information
Getting current METAR information for EDDL 191550Z 04009KT CAVOK 26/06 Q1016 NOSIG
Getting current METAR information for EDDM 191550Z 05003KT 020V080 CAVOK 21/12 Q1017 NOSIG

Schedule Frequency

Route Map